Time;durP1;ratioP1;P1;durP2;ratioP2;P2;SDS_P1;SDS_P2;PMS_P1;PMS_P2;Temp;Humidity;BMP_temperature;BMP_pressure;BME280_temperature;BME280_humidity;BME280_pressure;Samples;Min_cycle;Max_cycle;Signal;HPM_P1;HPM_P2
2024/04/09 00:00:15;;;;;;;3.50;1.60;;;;;;;10.89;67.67;99977.16;5395185;26;20000;-61
2024/04/09 00:02:41;;;;;;;5.72;1.67;;;;;;;10.84;68.05;99972.06;5395143;26;20004;-61
2024/04/09 00:05:08;;;;;;;6.75;0.98;;;;;;;10.87;68.42;99981.53;5395467;26;20567;-60
2024/04/09 00:07:35;;;;;;;2.28;1.30;;;;;;;10.84;68.28;99986.78;5395141;26;20004;-61
2024/04/09 00:10:06;;;;;;;4.07;1.50;;;;;;;10.80;68.34;99991.16;5395494;26;20032;-61
2024/04/09 00:12:35;;;;;;;8.50;2.22;;;;;;;10.83;67.98;99990.25;5395432;26;20001;-62
2024/04/09 00:15:07;;;;;;;5.40;1.67;;;;;;;10.86;68.49;100000.59;5394920;26;20074;-60
2024/04/09 00:17:34;;;;;;;;;;;;;;;10.91;68.47;100003.94;5395716;26;20007;-61
2024/04/09 00:20:00;;;;;;;1.40;1.15;;;;;;;10.85;68.19;99991.06;5394339;26;19933;-61
2024/04/09 00:22:27;;;;;;;3.60;1.02;;;;;;;10.87;68.59;99992.78;5394821;26;20008;-61
2024/04/09 00:24:53;;;;;;;3.40;1.20;;;;;;;10.83;68.49;99987.66;5392829;26;19996;-60
2024/04/09 00:27:18;;;;;;;2.55;1.35;;;;;;;10.86;68.38;99991.03;5392960;26;20047;-62
2024/04/09 00:29:44;;;;;;;7.22;1.83;;;;;;;10.86;68.35;99991.03;5394832;26;20007;-62
2024/04/09 00:32:09;;;;;;;5.32;1.42;;;;;;;10.88;68.33;99991.00;5393351;26;20007;-61
2024/04/09 00:34:35;;;;;;;5.13;1.80;;;;;;;10.89;68.50;99984.97;5393448;26;20000;-61
2024/04/09 00:37:00;;;;;;;4.88;1.48;;;;;;;10.82;68.65;99967.75;5394781;26;19996;-62
2024/04/09 00:39:27;;;;;;;1.15;0.88;;;;;;;10.84;68.63;99973.78;5393200;26;19996;-61
2024/04/09 00:41:54;;;;;;;3.13;1.65;;;;;;;10.83;68.43;99978.13;5394891;26;19996;-62
2024/04/09 00:44:24;;;;;;;2.90;1.30;;;;;;;10.78;68.36;99972.16;5394964;26;20011;-62
2024/04/09 00:46:50;;;;;;;2.38;1.38;;;;;;;10.75;68.73;99967.00;5394826;26;20028;-61
2024/04/09 00:49:15;;;;;;;2.55;1.15;;;;;;;10.71;68.70;99973.13;5392800;26;19992;-61
2024/04/09 00:51:44;;;;;;;2.58;1.55;;;;;;;10.62;69.06;99969.78;5395050;26;20011;-62
2024/04/09 00:54:11;;;;;;;2.17;1.30;;;;;;;10.57;68.89;99974.22;5394824;26;20008;-61
2024/04/09 00:56:37;;;;;;;6.68;1.45;;;;;;;10.49;69.31;99978.66;5394475;26;20011;-61
2024/04/09 00:59:04;;;;;;;9.98;1.85;;;;;;;10.47;69.32;99981.28;5394615;26;20011;-62
2024/04/09 01:01:32;;;;;;;6.10;1.50;;;;;;;10.45;69.76;99982.16;5394578;26;20011;-61
2024/04/09 01:03:58;;;;;;;2.45;1.10;;;;;;;10.38;69.98;99976.19;5394291;26;20103;-61
2024/04/09 01:06:23;;;;;;;1.52;1.10;;;;;;;10.37;70.25;99983.09;5394517;26;20000;-61
2024/04/09 01:08:49;;;;;;;2.05;1.80;;;;;;;10.34;70.03;99967.59;5393805;26;20041;-62
2024/04/09 01:11:15;;;;;;;2.42;1.60;;;;;;;10.32;70.30;99979.72;5394066;26;20027;-61
2024/04/09 01:13:41;;;;;;;2.45;1.30;;;;;;;10.29;70.32;99970.25;5394659;26;20003;-61
2024/04/09 01:16:07;;;;;;;2.95;1.25;;;;;;;10.23;70.17;99977.25;5394220;26;20212;-62
2024/04/09 01:18:33;;;;;;;4.60;1.25;;;;;;;10.18;70.38;99969.53;5394263;26;20000;-61
2024/04/09 01:20:59;;;;;;;4.00;1.10;;;;;;;10.12;70.27;99977.41;5394500;26;20367;-61
2024/04/09 01:23:24;;;;;;;3.42;1.20;;;;;;;10.09;70.46;99973.13;5393707;26;20006;-62
2024/04/09 01:25:49;;;;;;;3.33;1.50;;;;;;;10.03;70.79;99962.84;5394102;26;19996;-61
2024/04/09 01:28:15;;;;;;;2.08;1.15;;;;;;;10.00;70.56;99962.88;5394115;26;20007;-60
2024/04/09 01:30:40;;;;;;;11.80;1.70;;;;;;;9.97;70.62;99968.09;5393512;26;20008;-61
2024/04/09 01:33:06;;;;;;;3.70;1.20;;;;;;;9.89;70.79;99963.84;5393883;26;19992;-61
2024/04/09 01:35:31;;;;;;;6.75;1.75;;;;;;;9.91;71.60;99969.91;5393708;26;20433;-61
2024/04/09 01:37:58;;;;;;;2.00;1.30;;;;;;;9.81;72.03;99964.84;5393755;26;20008;-62
2024/04/09 01:40:23;;;;;;;2.03;1.63;;;;;;;9.85;72.18;99972.56;5394145;26;20077;-62
2024/04/09 01:42:48;;;;;;;1.70;1.30;;;;;;;9.80;72.49;99971.75;5392353;26;20004;-62
2024/04/09 01:45:14;;;;;;;1.80;1.40;;;;;;;9.80;73.12;99976.94;5393225;26;20012;-61
2024/04/09 01:47:39;;;;;;;16.30;2.15;;;;;;;9.80;73.74;99982.13;5393729;26;19996;-61
2024/04/09 01:50:05;;;;;;;1.23;1.05;;;;;;;9.77;73.63;99980.44;5393807;26;20025;-61
2024/04/09 01:52:34;;;;;;;3.75;1.42;;;;;;;9.67;74.56;99958.94;5393964;26;19999;-60
2024/04/09 01:55:00;;;;;;;2.20;1.27;;;;;;;9.73;74.83;99973.56;5393538;26;20000;-60
2024/04/09 01:57:31;;;;;;;2.38;1.20;;;;;;;9.77;75.01;99970.06;5393506;26;20015;-61
2024/04/09 01:59:57;;;;;;;6.05;1.85;;;;;;;9.71;75.56;99970.16;5393537;26;20008;-60
2024/04/09 02:02:23;;;;;;;4.32;1.75;;;;;;;9.74;76.05;99974.44;5392071;26;20028;-63
2024/04/09 02:04:48;;;;;;;1.55;1.30;;;;;;;9.71;76.54;99974.47;5393728;26;20017;-61
2024/04/09 02:07:14;;;;;;;9.75;1.50;;;;;;;9.73;76.66;99983.94;5393783;26;20004;-60
2024/04/09 02:09:40;;;;;;;3.90;1.50;;;;;;;9.76;77.21;99980.47;5393021;26;20008;-61
2024/04/09 02:12:07;;;;;;;1.92;1.10;;;;;;;9.79;77.48;99985.59;5391542;26;20012;-60
2024/04/09 02:14:33;;;;;;;2.25;1.38;;;;;;;9.78;77.71;99981.28;5393499;26;20016;-61
2024/04/09 02:16:59;;;;;;;6.20;1.77;;;;;;;9.84;78.14;99982.97;5393274;26;20069;-61
2024/04/09 02:19:25;;;;;;;1.15;0.85;;;;;;;9.82;78.25;99980.38;5393265;26;20004;-61
2024/04/09 02:21:51;;;;;;;1.65;1.23;;;;;;;9.88;78.45;99985.50;5393293;26;19997;-61
2024/04/09 02:24:16;;;;;;;1.33;1.15;;;;;;;9.88;78.72;99988.09;5393214;26;20004;-61
2024/04/09 02:26:43;;;;;;;5.93;1.45;;;;;;;9.85;78.55;99990.72;5393505;26;20015;-60
2024/04/09 02:29:08;;;;;;;1.00;0.80;;;;;;;9.82;78.96;99990.75;5393396;26;20000;-61
2024/04/09 02:31:34;;;;;;;4.25;1.33;;;;;;;9.84;78.97;99990.75;5392986;26;20028;-61
2024/04/09 02:33:59;;;;;;;4.95;1.85;;;;;;;9.81;79.40;99991.59;5393374;26;20032;-61
2024/04/09 02:36:24;;;;;;;3.75;1.70;;;;;;;9.76;79.59;99991.66;5393076;26;20044;-61
2024/04/09 02:38:50;;;;;;;1.60;0.80;;;;;;;9.74;79.88;99987.38;5391507;26;20008;-62
2024/04/09 02:41:17;;;;;;;3.00;1.10;;;;;;;9.70;79.65;99980.50;5391591;26;20337;-61
2024/04/09 02:43:42;;;;;;;7.97;2.22;;;;;;;9.66;80.27;99984.88;5392547;26;20000;-61
2024/04/09 02:46:08;;;;;;;1.92;1.15;;;;;;;9.65;80.54;99978.84;5392769;26;20012;-62
2024/04/09 02:48:34;;;;;;;2.47;1.55;;;;;;;9.59;80.69;99976.31;5393061;26;20004;-61
2024/04/09 02:51:03;;;;;;;7.97;2.13;;;;;;;9.63;81.02;99984.94;5391197;26;20011;-62
2024/04/09 02:53:29;;;;;;;8.88;3.17;;;;;;;9.58;81.34;99972.03;5392469;26;20000;-61
2024/04/09 02:56:14;;;;;;;1.27;0.80;;;;;;;9.57;81.60;99969.44;5393188;26;20015;-62
2024/04/09 02:58:40;;;;;;;1.50;1.40;;;;;;;9.55;81.34;99974.66;5390503;26;20015;-61
2024/04/09 03:01:10;;;;;;;2.25;1.15;;;;;;;9.56;82.16;99963.41;5392515;26;19996;-62
2024/04/09 03:03:37;;;;;;;4.72;1.52;;;;;;;9.57;82.24;99962.50;5390912;26;20012;-60
2024/04/09 03:06:11;;;;;;;7.28;0.95;;;;;;;9.54;82.14;99965.13;5392687;26;20015;-62
2024/04/09 03:08:37;;;;;;;2.65;0.90;;;;;;;9.47;82.21;99954.00;5390954;26;20000;-62
2024/04/09 03:11:12;;;;;;;2.42;0.98;;;;;;;9.51;82.32;99963.44;5392308;26;20518;-62
2024/04/09 03:13:39;;;;;;;1.85;1.00;;;;;;;9.46;82.73;99948.81;5392951;26;20019;-62
2024/04/09 03:16:15;;;;;;;2.67;1.40;;;;;;;9.47;82.84;99950.53;5392427;26;20495;-61
2024/04/09 03:18:41;;;;;;;8.15;1.75;;;;;;;9.39;82.71;99941.09;5392052;26;20012;-62
2024/04/09 03:21:06;;;;;;;2.25;1.13;;;;;;;9.43;82.35;99941.94;5392449;26;20012;-62
2024/04/09 03:23:32;;;;;;;6.82;1.70;;;;;;;9.40;82.50;99936.78;5392197;26;20024;-62
2024/04/09 03:25:57;;;;;;;3.83;1.80;;;;;;;9.46;83.01;99956.59;5390594;26;20016;-62
2024/04/09 03:28:22;;;;;;;1.52;1.25;;;;;;;9.44;82.67;99953.16;5392336;26;20011;-62
2024/04/09 03:30:58;;;;;;;1.27;1.00;;;;;;;9.48;82.95;99957.44;5391182;26;20032;-62
2024/04/09 03:33:23;;;;;;;6.68;1.27;;;;;;;9.52;82.86;99956.53;5392180;26;20004;-61
2024/04/09 03:35:53;;;;;;;2.00;1.17;;;;;;;9.52;82.88;99957.38;5392329;26;20019;-62
2024/04/09 03:38:18;;;;;;;12.32;1.73;;;;;;;9.62;82.35;99955.53;5392081;26;19996;-62
2024/04/09 03:40:58;;;;;;;2.67;1.17;;;;;;;9.69;82.54;99968.44;5392228;26;20099;-62
2024/04/09 03:43:23;;;;;;;12.82;2.20;;;;;;;9.70;82.09;99971.00;5392094;26;20051;-60
2024/04/09 03:46:21;;;;;;;3.80;1.63;;;;;;;9.74;82.34;99957.16;5391597;26;20015;-62
2024/04/09 03:48:48;;;;;;;0.70;0.60;;;;;;;9.76;82.01;99936.41;5391675;26;20024;-61
2024/04/09 03:51:16;;;;;;;10.50;1.60;;;;;;;9.77;81.88;99930.31;5391988;26;20015;-62
2024/04/09 03:53:45;;;;;;;1.90;1.45;;;;;;;9.79;82.14;99928.56;5390257;26;19997;-62
2024/04/09 03:56:10;;;;;;;2.45;1.27;;;;;;;9.84;81.91;99933.69;5392040;26;20460;-61
2024/04/09 03:58:48;;;;;;;2.92;1.45;;;;;;;9.83;81.96;99917.28;5391548;26;20001;-61
2024/04/09 04:01:13;;;;;;;3.35;1.20;;;;;;;9.85;81.98;99918.13;5391728;26;20056;-62
2024/04/09 04:03:45;;;;;;;4.97;1.10;;;;;;;9.93;81.47;99920.59;5391730;26;20018;-62
2024/04/09 04:06:10;;;;;;;;;;;;;;;10.03;81.11;99926.53;5390478;26;20007;-63
2024/04/09 04:08:38;;;;;;;3.85;1.23;;;;;;;10.03;81.23;99921.34;5391501;26;19925;-62
2024/04/09 04:11:05;;;;;;;2.22;0.90;;;;;;;10.09;81.07;99920.38;5391522;26;20004;-62
2024/04/09 04:13:33;;;;;;;3.05;1.27;;;;;;;10.10;81.19;99920.38;5391627;26;20007;-62
2024/04/09 04:16:05;;;;;;;1.50;1.00;;;;;;;10.14;81.00;99919.44;5391404;26;20134;-63
2024/04/09 04:18:35;;;;;;;2.17;1.13;;;;;;;10.16;80.39;99920.28;5389683;26;19996;-63
2024/04/09 04:21:01;;;;;;;7.55;1.25;;;;;;;10.23;80.33;99912.41;5391718;26;20012;-64
2024/04/09 04:23:27;;;;;;;1.58;0.98;;;;;;;10.26;80.11;99907.16;5389606;26;20027;-63
2024/04/09 04:26:03;;;;;;;2.30;0.70;;;;;;;10.30;80.21;99911.44;5360424;26;20000;-62
2024/04/09 04:28:32;;;;;;;3.03;1.40;;;;;;;10.34;79.62;99914.81;5391543;26;19996;-64
2024/04/09 04:30:59;;;;;;;3.10;1.20;;;;;;;10.37;79.78;99922.56;5390477;26;20004;-60
2024/04/09 04:33:25;;;;;;;12.70;1.55;;;;;;;10.41;79.51;99917.28;5391087;26;20011;-63
2024/04/09 04:35:51;;;;;;;4.32;1.13;;;;;;;10.45;79.63;99914.69;5391088;26;20401;-62
2024/04/09 04:38:17;;;;;;;3.45;1.75;;;;;;;10.43;79.55;99912.13;5389794;26;20546;-62
2024/04/09 04:40:45;;;;;;;1.90;1.27;;;;;;;10.51;78.90;99919.81;5390079;26;20012;-61
2024/04/09 04:43:10;;;;;;;3.65;1.20;;;;;;;10.49;78.95;99913.78;5393131;26;20004;-61
2024/04/09 04:45:36;;;;;;;4.50;0.93;;;;;;;10.46;79.03;99904.31;5394405;26;20011;-62
2024/04/09 04:48:01;;;;;;;2.90;1.50;;;;;;;10.46;78.46;99893.94;5395036;26;20000;-62
2024/04/09 04:50:27;;;;;;;2.00;1.17;;;;;;;10.48;78.71;99896.50;5394711;26;20015;-61
2024/04/09 04:52:52;;;;;;;10.02;1.52;;;;;;;10.57;79.56;99893.75;5394230;26;20012;-61
2024/04/09 04:55:18;;;;;;;3.50;1.75;;;;;;;10.87;79.04;99899.28;5392839;26;20049;-61
2024/04/09 04:57:43;;;;;;;2.33;1.67;;;;;;;11.14;78.50;99899.66;5394464;26;20318;-63
2024/04/09 05:00:09;;;;;;;1.85;1.05;;;;;;;11.32;77.52;99901.94;5394489;26;20004;-63
2024/04/09 05:02:37;;;;;;;4.32;1.08;;;;;;;11.44;76.73;99893.03;5394979;26;20327;-62
2024/04/09 05:05:04;;;;;;;4.00;1.42;;;;;;;11.57;76.26;99894.50;5392823;26;20004;-61
2024/04/09 05:07:29;;;;;;;3.38;1.55;;;;;;;11.74;76.00;99894.13;5394214;26;20046;-62
2024/04/09 05:09:55;;;;;;;4.45;0.75;;;;;;;11.94;75.42;99899.78;5394689;26;20000;-61
2024/04/09 05:12:20;;;;;;;3.55;1.50;;;;;;;12.05;74.22;99886.53;5394555;26;20004;-61
2024/04/09 05:14:45;;;;;;;1.40;0.95;;;;;;;12.01;72.93;99894.41;5394605;26;20447;-62
2024/04/09 05:17:11;;;;;;;2.55;1.40;;;;;;;11.84;72.73;99893.91;5394072;26;20071;-62
2024/04/09 05:19:36;;;;;;;2.85;1.45;;;;;;;11.69;72.96;99893.38;5394351;26;20000;-62
2024/04/09 05:22:02;;;;;;;1.42;1.00;;;;;;;11.75;73.06;99903.66;5394474;26;20418;-61
2024/04/09 05:24:28;;;;;;;1.40;1.05;;;;;;;11.78;72.99;99889.72;5392607;26;19997;-61
2024/04/09 05:26:53;;;;;;;3.85;1.80;;;;;;;11.93;73.35;99898.09;5394325;26;20004;-62
2024/04/09 05:29:18;;;;;;;2.15;1.17;;;;;;;12.08;72.75;99899.50;5394224;26;20137;-60
2024/04/09 05:31:44;;;;;;;6.32;1.70;;;;;;;11.96;72.26;99901.47;5394110;26;20015;-60
2024/04/09 05:34:09;;;;;;;5.95;1.50;;;;;;;11.83;72.93;99905.22;5394230;26;20454;-60
2024/04/09 05:36:34;;;;;;;2.00;1.17;;;;;;;11.82;72.58;99906.13;5394497;26;20019;-62
2024/04/09 05:38:59;;;;;;;1.67;1.13;;;;;;;11.74;73.05;99901.09;5394158;26;20428;-61
2024/04/09 05:41:25;;;;;;;5.65;1.20;;;;;;;11.75;72.72;99906.25;5394341;26;20035;-62
2024/04/09 05:43:50;;;;;;;4.57;1.52;;;;;;;11.70;73.00;99905.50;5394043;26;20000;-61
2024/04/09 05:46:16;;;;;;;8.07;1.35;;;;;;;11.65;72.65;99913.41;5394001;26;20008;-61
2024/04/09 05:48:41;;;;;;;3.40;1.30;;;;;;;11.56;72.86;99916.19;5392405;26;20000;-65
2024/04/09 05:51:06;;;;;;;1.40;1.10;;;;;;;11.47;72.90;99913.78;5393975;26;20000;-61
2024/04/09 05:53:32;;;;;;;2.70;1.33;;;;;;;11.37;73.08;99916.53;5392082;26;20004;-62
2024/04/09 05:55:57;;;;;;;2.75;1.42;;;;;;;11.34;73.41;99907.97;5394037;26;20002;-62
2024/04/09 05:58:23;;;;;;;2.90;1.27;;;;;;;11.32;73.72;99909.72;5392861;26;20004;-61
2024/04/09 06:00:51;;;;;;;0.60;0.60;;;;;;;11.25;73.79;99907.25;5391774;26;20008;-62
2024/04/09 06:03:16;;;;;;;1.08;0.68;;;;;;;11.25;73.70;99916.78;5393130;26;20131;-61
2024/04/09 06:05:42;;;;;;;3.10;1.35;;;;;;;11.19;74.20;99899.56;5394137;26;20001;-63
2024/04/09 06:08:07;;;;;;;4.72;1.20;;;;;;;11.22;74.05;99911.63;5394043;26;20015;-61
2024/04/09 06:10:32;;;;;;;7.60;2.17;;;;;;;11.21;74.13;99902.13;5394220;26;20028;-62
2024/04/09 06:12:58;;;;;;;4.13;0.95;;;;;;;11.24;74.49;99905.53;5391992;26;20004;-62
2024/04/09 06:15:23;;;;;;;4.95;1.15;;;;;;;11.26;74.40;99895.13;5393668;26;20004;-62
2024/04/09 06:17:48;;;;;;;4.65;1.73;;;;;;;11.27;74.49;99892.50;5393707;26;20019;-61
2024/04/09 06:20:14;;;;;;;3.20;1.00;;;;;;;11.27;74.54;99887.28;5393640;26;20062;-61
2024/04/09 06:22:40;;;;;;;2.67;1.08;;;;;;;11.35;74.38;99886.28;5393953;26;20401;-61
2024/04/09 06:25:06;;;;;;;0.88;0.60;;;;;;;11.36;74.11;99878.44;5393578;26;20011;-62
2024/04/09 06:27:32;;;;;;;4.97;1.38;;;;;;;11.42;74.37;99879.22;5392879;26;20062;-62
2024/04/09 06:29:58;;;;;;;2.50;1.13;;;;;;;11.42;73.79;99874.00;5393308;26;20008;-61
2024/04/09 06:32:23;;;;;;;1.40;0.70;;;;;;;11.48;73.63;99879.09;5393243;26;20058;-61
2024/04/09 06:34:49;;;;;;;1.08;0.88;;;;;;;11.53;73.12;99883.28;5393864;26;20004;-62
2024/04/09 06:37:14;;;;;;;2.05;1.45;;;;;;;11.51;73.21;99879.03;5393872;26;20004;-61
2024/04/09 06:39:39;;;;;;;1.33;1.00;;;;;;;11.52;72.93;99870.31;5391523;26;20051;-63
2024/04/09 06:42:05;;;;;;;4.68;0.82;;;;;;;11.67;72.56;99863.09;5393643;26;20385;-61
2024/04/09 06:44:31;;;;;;;1.60;1.02;;;;;;;11.72;72.67;99876.84;5393826;26;20000;-61
2024/04/09 06:46:57;;;;;;;2.55;1.02;;;;;;;11.80;72.35;99874.09;5393169;26;20001;-61
2024/04/09 06:49:23;;;;;;;1.40;1.10;;;;;;;11.86;71.58;99885.22;5393791;26;20000;-61
2024/04/09 06:51:48;;;;;;;2.38;1.17;;;;;;;11.87;71.63;99881.72;5393423;26;20001;-61
2024/04/09 06:54:13;;;;;;;3.72;1.10;;;;;;;11.84;71.34;99879.19;5393398;26;20000;-62
2024/04/09 06:56:39;;;;;;;4.47;1.45;;;;;;;11.84;71.74;99876.59;5393511;26;20000;-62
2024/04/09 06:59:04;;;;;;;1.83;1.25;;;;;;;11.88;71.06;99878.25;5393356;26;20044;-61
2024/04/09 07:01:30;;;;;;;2.28;0.95;;;;;;;11.88;71.17;99872.19;5392782;26;20003;-62
2024/04/09 07:03:56;;;;;;;8.80;1.25;;;;;;;12.03;70.21;99878.75;5393294;26;20012;-61
2024/04/09 07:06:22;;;;;;;0.90;0.80;;;;;;;11.93;70.65;99869.47;5392010;26;20011;-62
2024/04/09 07:08:49;;;;;;;0.70;0.70;;;;;;;12.01;69.92;99871.00;5392881;26;20012;-61
2024/04/09 07:11:15;;;;;;;7.97;0.80;;;;;;;12.04;69.83;99854.47;5393107;26;20075;-61
2024/04/09 07:13:40;;;;;;;2.38;0.85;;;;;;;12.12;69.57;99869.94;5393079;26;20004;-62
2024/04/09 07:16:07;;;;;;;4.55;1.05;;;;;;;12.11;69.36;99852.59;5392897;26;20000;-60
2024/04/09 07:18:32;;;;;;;3.38;1.23;;;;;;;12.17;69.49;99855.06;5393076;26;20011;-62
2024/04/09 07:20:57;;;;;;;2.10;1.15;;;;;;;12.30;68.09;99860.81;5392944;26;20004;-62
2024/04/09 07:23:23;;;;;;;0.60;0.50;;;;;;;12.35;66.92;99858.97;5393126;26;20055;-61
2024/04/09 07:25:48;;;;;;;2.58;1.45;;;;;;;12.32;67.11;99866.84;5392986;26;20004;-62
2024/04/09 07:28:13;;;;;;;2.08;0.90;;;;;;;12.38;67.25;99864.09;5393095;26;20023;-61
2024/04/09 07:30:39;;;;;;;3.05;1.25;;;;;;;12.51;66.22;99874.19;5392589;26;20390;-62
2024/04/09 07:33:05;;;;;;;1.70;0.60;;;;;;;12.60;66.35;99871.34;5393021;26;20032;-61
2024/04/09 07:35:30;;;;;;;5.10;1.02;;;;;;;12.73;65.91;99866.69;5390831;26;20000;-61
2024/04/09 07:37:56;;;;;;;3.40;1.35;;;;;;;13.00;65.18;99872.06;5392519;26;20015;-62
2024/04/09 07:40:22;;;;;;;3.50;0.90;;;;;;;13.32;64.37;99871.22;5392667;26;20000;-63
2024/04/09 07:42:47;;;;;;;4.03;1.35;;;;;;;13.44;63.44;99870.84;5392477;26;20429;-62
2024/04/09 07:45:13;;;;;;;1.30;0.68;;;;;;;13.56;62.86;99867.06;5392640;26;20012;-62
2024/04/09 07:47:40;;;;;;;2.40;0.90;;;;;;;13.61;62.06;99859.13;5392245;26;19996;-63
2024/04/09 07:50:09;;;;;;;1.33;0.80;;;;;;;13.76;62.44;99868.22;5392268;26;20004;-62
2024/04/09 07:52:38;;;;;;;0.82;0.60;;;;;;;13.98;61.28;99867.53;5392427;26;20055;-62
2024/04/09 07:55:08;;;;;;;1.27;0.50;;;;;;;14.07;60.14;99875.13;5392385;26;20011;-61
2024/04/09 07:57:36;;;;;;;0.90;0.70;;;;;;;14.15;59.94;99863.56;5392123;26;20012;-62
2024/04/09 08:00:08;;;;;;;2.58;1.00;;;;;;;14.24;58.76;99852.81;5392271;26;20012;-61
2024/04/09 08:02:33;;;;;;;0.60;0.60;;;;;;;14.09;58.88;99849.78;5392396;26;20000;-60
2024/04/09 08:04:59;;;;;;;1.88;1.15;;;;;;;14.14;58.74;99841.81;5392177;26;20000;-62
2024/04/09 08:07:25;;;;;;;0.70;0.63;;;;;;;14.11;58.39;99845.38;5391927;26;20040;-62
2024/04/09 08:09:50;;;;;;;0.85;0.82;;;;;;;14.12;58.35;99851.47;5391966;26;20436;-61
2024/04/09 08:12:16;;;;;;;2.55;0.80;;;;;;;14.09;58.55;99843.75;5392262;26;19996;-62
2024/04/09 08:14:41;;;;;;;4.25;0.95;;;;;;;14.25;57.53;99850.16;5390160;26;20012;-61
2024/04/09 08:17:06;;;;;;;1.33;0.60;;;;;;;14.46;57.52;99857.31;5393804;26;20346;-62
2024/04/09 08:19:32;;;;;;;1.00;0.70;;;;;;;14.87;56.78;99849.84;5393621;26;20000;-60
2024/04/09 08:21:57;;;;;;;4.22;0.90;;;;;;;15.04;55.94;99847.53;5395488;26;20488;-62
2024/04/09 08:24:22;;;;;;;6.90;0.82;;;;;;;15.10;55.89;99831.63;5395687;26;20000;-61
2024/04/09 08:26:47;;;;;;;1.35;0.50;;;;;;;15.15;55.90;99821.00;5395428;26;20012;-60
2024/04/09 08:29:16;;;;;;;1.05;0.65;;;;;;;15.33;54.74;99806.41;5395044;26;20046;-62
2024/04/09 08:31:44;;;;;;;0.38;0.32;;;;;;;15.46;55.55;99805.00;5395209;26;20015;-61
2024/04/09 08:34:10;;;;;;;0.95;0.63;;;;;;;15.84;55.29;99804.44;5395330;26;20005;-61
2024/04/09 08:36:36;;;;;;;1.65;0.93;;;;;;;16.08;54.06;99807.00;5395321;26;20004;-61
2024/04/09 08:39:03;;;;;;;2.72;0.80;;;;;;;16.26;53.03;99820.25;5395331;26;20012;-61
2024/04/09 08:41:29;;;;;;;0.45;0.43;;;;;;;16.33;52.88;99826.91;5395283;26;20008;-61
2024/04/09 08:43:57;;;;;;;1.40;0.73;;;;;;;16.45;52.85;99817.66;5395260;26;20000;-61
2024/04/09 08:46:23;;;;;;;0.85;0.60;;;;;;;16.76;51.55;99817.28;5395272;26;20432;-61
2024/04/09 08:48:50;;;;;;;0.60;0.60;;;;;;;16.85;50.37;99814.25;5395271;26;20008;-62
2024/04/09 08:51:16;;;;;;;0.77;0.70;;;;;;;16.52;51.18;99836.59;5395182;26;20004;-61
2024/04/09 08:53:44;;;;;;;3.40;1.00;;;;;;;16.17;51.89;99824.06;5393431;26;20012;-61
2024/04/09 08:56:10;;;;;;;1.75;0.60;;;;;;;16.16;52.30;99824.16;5394816;26;20012;-61
2024/04/09 08:58:36;;;;;;;0.98;0.57;;;;;;;16.07;53.08;99809.69;5394831;26;20047;-60
2024/04/09 09:01:02;;;;;;;0.80;0.32;;;;;;;16.60;52.59;99805.69;5394766;26;20011;-63
2024/04/09 09:03:28;;;;;;;2.00;0.85;;;;;;;16.69;51.89;99796.56;5394788;26;20043;-61
2024/04/09 09:06:05;;;;;;;5.28;0.90;;;;;;;16.61;52.26;99782.97;5395040;26;20441;-62
2024/04/09 09:08:43;;;;;;;2.58;0.73;;;;;;;16.56;52.53;99771.84;5394940;26;20004;-61
2024/04/09 09:11:09;;;;;;;0.80;0.65;;;;;;;16.40;52.85;99779.50;5394932;26;20012;-62
2024/04/09 09:13:34;;;;;;;0.73;0.40;;;;;;;16.15;53.29;99797.09;5394950;26;20004;-60
2024/04/09 09:16:00;;;;;;;0.90;0.52;;;;;;;15.98;53.96;99796.03;5394376;26;20000;-61
2024/04/09 09:18:25;;;;;;;0.88;0.60;;;;;;;15.79;54.12;99774.09;5394788;26;20004;-60
2024/04/09 09:21:01;;;;;;;1.80;1.60;;;;;;;15.81;54.56;99778.38;5394776;26;20008;-61
2024/04/09 09:23:27;;;;;;;0.85;0.75;;;;;;;15.77;55.07;99778.56;5394678;26;20004;-60
2024/04/09 09:25:54;;;;;;;2.65;0.90;;;;;;;15.81;55.17;99762.69;5394769;26;20036;-61
2024/04/09 09:28:21;;;;;;;1.05;0.80;;;;;;;15.80;54.89;99747.88;5393623;26;20000;-61
2024/04/09 09:30:48;;;;;;;4.28;0.65;;;;;;;15.68;55.38;99730.06;5394308;26;19996;-60
2024/04/09 09:33:29;;;;;;;1.00;0.63;;;;;;;15.68;55.62;99701.28;5394875;26;20020;-61
2024/04/09 09:35:56;;;;;;;2.30;0.85;;;;;;;15.53;56.21;99702.78;5394705;26;20004;-62
2024/04/09 09:38:23;;;;;;;3.45;1.00;;;;;;;15.47;56.57;99714.31;5394141;26;20004;-61
2024/04/09 09:40:51;;;;;;;1.25;0.70;;;;;;;15.47;56.49;99736.09;5394371;26;20015;-61
2024/04/09 09:43:21;;;;;;;0.93;0.50;;;;;;;15.53;56.86;99755.91;5394568;26;20000;-60
2024/04/09 09:45:50;;;;;;;0.63;0.60;;;;;;;15.61;56.91;99753.84;5394266;26;20008;-62
2024/04/09 09:48:20;;;;;;;3.72;0.65;;;;;;;15.67;56.84;99754.53;5392438;26;20000;-63
2024/04/09 09:50:46;;;;;;;1.52;0.70;;;;;;;15.67;56.88;99747.50;5394338;26;20050;-60
2024/04/09 09:53:12;;;;;;;1.55;0.60;;;;;;;15.82;56.45;99750.44;5394295;26;20015;-61
2024/04/09 09:55:39;;;;;;;0.82;0.65;;;;;;;15.82;56.93;99761.75;5394257;26;20055;-61
2024/04/09 09:58:09;;;;;;;1.05;0.82;;;;;;;15.73;57.03;99752.50;5393888;26;20004;-62
2024/04/09 10:00:37;;;;;;;3.50;0.70;;;;;;;15.77;56.92;99739.31;5394029;26;20004;-62
2024/04/09 10:03:04;;;;;;;7.30;1.02;;;;;;;15.83;56.91;99750.38;5394481;26;20315;-61
2024/04/09 10:05:36;;;;;;;6.03;0.90;;;;;;;15.72;57.44;99744.72;5392255;26;20024;-61
2024/04/09 10:08:12;;;;;;;0.85;0.68;;;;;;;15.67;57.75;99734.44;5394110;26;20028;-62
2024/04/09 10:10:38;;;;;;;4.47;0.73;;;;;;;15.63;58.07;99745.94;5392011;26;20000;-61
2024/04/09 10:13:08;;;;;;;0.88;0.70;;;;;;;15.41;58.38;99738.09;5394311;26;19997;-62
2024/04/09 10:15:34;;;;;;;5.60;1.20;;;;;;;15.50;58.69;99745.56;5393605;26;20000;-60
2024/04/09 10:18:06;;;;;;;1.33;0.63;;;;;;;15.31;59.28;99721.91;5393807;26;20004;-62
2024/04/09 10:20:35;;;;;;;;;;;;;;;15.20;60.00;99725.81;5394771;26;20007;-61
2024/04/09 10:23:02;;;;;;;1.05;0.70;;;;;;;14.97;60.30;99731.91;5394008;26;19933;-61
2024/04/09 10:25:31;;;;;;;3.88;0.82;;;;;;;14.92;61.04;99739.09;5393661;26;20010;-61
2024/04/09 10:27:59;;;;;;;0.52;0.45;;;;;;;14.82;61.42;99734.22;5393817;26;20081;-60
2024/04/09 10:30:27;;;;;;;3.20;0.85;;;;;;;14.77;61.77;99730.88;5393451;26;20000;-63
2024/04/09 10:32:57;;;;;;;1.08;0.60;;;;;;;14.78;62.13;99722.13;5393719;26;19996;-62
2024/04/09 10:35:23;;;;;;;2.58;0.82;;;;;;;14.86;62.35;99721.84;5393620;26;20051;-62
2024/04/09 10:37:53;;;;;;;3.15;0.93;;;;;;;15.04;61.98;99736.00;5393401;26;19997;-62
2024/04/09 10:40:19;;;;;;;1.30;0.70;;;;;;;15.09;61.88;99736.69;5392069;26;20533;-60
2024/04/09 10:42:44;;;;;;;0.52;0.50;;;;;;;15.10;61.85;99711.38;5393525;26;20004;-60
2024/04/09 10:45:10;;;;;;;0.73;0.57;;;;;;;15.17;61.58;99733.78;5391880;26;19997;-62
2024/04/09 10:47:37;;;;;;;1.08;0.90;;;;;;;15.20;61.89;99704.03;5393782;26;20019;-62
2024/04/09 10:50:03;;;;;;;1.42;0.73;;;;;;;15.26;61.67;99719.47;5393544;26;20004;-61
2024/04/09 10:52:29;;;;;;;0.40;0.40;;;;;;;15.29;61.74;99708.91;5391635;26;19997;-62
2024/04/09 10:54:54;;;;;;;2.65;0.65;;;;;;;15.31;61.80;99706.22;5393184;26;20025;-61
2024/04/09 10:57:20;;;;;;;0.60;0.57;;;;;;;15.44;61.14;99714.44;5393449;26;20076;-62
2024/04/09 10:59:46;;;;;;;1.73;0.90;;;;;;;15.39;61.46;99698.06;5393336;26;20012;-61
2024/04/09 11:02:13;;;;;;;1.25;0.80;;;;;;;15.37;61.53;99692.91;5393225;26;20016;-62
2024/04/09 11:04:39;;;;;;;0.73;0.63;;;;;;;15.46;61.50;99694.31;5392969;26;20015;-61
2024/04/09 11:07:07;;;;;;;1.15;0.80;;;;;;;15.53;61.38;99697.53;5391304;26;20424;-62
2024/04/09 11:09:33;;;;;;;1.35;0.70;;;;;;;15.44;61.56;99691.75;5393129;26;20020;-62
2024/04/09 11:12:00;;;;;;;1.60;0.70;;;;;;;15.42;61.79;99684.88;5392981;26;20028;-62
2024/04/09 11:14:25;;;;;;;1.90;0.70;;;;;;;15.42;61.77;99684.88;5393092;26;20074;-62
2024/04/09 11:16:51;;;;;;;2.22;0.93;;;;;;;15.45;61.86;99693.44;5392960;26;20008;-62
2024/04/09 11:19:21;;;;;;;2.13;0.80;;;;;;;15.42;61.76;99690.09;5392900;26;20000;-62
2024/04/09 11:21:46;;;;;;;1.10;0.60;;;;;;;15.42;62.08;99672.66;5391252;26;19996;-61
2024/04/09 11:24:12;;;;;;;1.20;0.70;;;;;;;15.47;61.97;99678.56;5392988;26;20078;-61
2024/04/09 11:26:41;;;;;;;1.25;0.85;;;;;;;15.49;61.72;99675.88;5392403;26;20011;-62
2024/04/09 11:29:18;;;;;;;1.48;1.15;;;;;;;15.54;61.73;99671.31;5392794;26;20036;-61
2024/04/09 11:31:44;;;;;;;1.00;0.88;;;;;;;15.56;61.68;99687.78;5392568;26;20036;-62
2024/04/09 11:34:10;;;;;;;0.57;0.52;;;;;;;15.62;61.93;99691.94;5392729;26;20019;-63